Time;durP1;ratioP1;P1;durP2;ratioP2;P2;SDS_P1;SDS_P2;PMS_P1;PMS_P2;Temp;Humidity;BMP_temperature;BMP_pressure;BME280_temperature;BME280_humidity;BME280_pressure;Samples;Min_cycle;Max_cycle;Signal;HPM_P1;HPM_P2
2024/01/01 00:01:10;;;;;;;140.70;102.40;;;;;;;4.05;100.00;99514.08;109333;1275;22067;-86
2024/01/01 00:03:52;;;;;;;134.80;100.20;;;;;;;4.05;100.00;99510.11;108917;1280;22017;-83
2024/01/01 00:06:38;;;;;;;140.30;104.80;;;;;;;4.04;100.00;99506.16;109199;1276;22005;-83
2024/01/01 00:09:17;;;;;;;141.80;108.90;;;;;;;4.04;100.00;99506.35;108858;1281;21998;-83
2024/01/01 00:12:03;;;;;;;148.20;114.10;;;;;;;4.01;100.00;99512.45;108914;1281;21991;-82
2024/01/01 00:14:40;;;;;;;144.40;111.40;;;;;;;3.98;100.00;99513.90;108634;1285;22000;-82
2024/01/01 00:17:17;;;;;;;137.30;106.90;;;;;;;3.94;100.00;99512.09;108789;1282;24354;-83
2024/01/01 00:20:12;;;;;;;133.90;103.70;;;;;;;3.89;100.00;99513.44;108803;1281;21994;-81
2024/01/01 00:22:49;;;;;;;137.00;103.60;;;;;;;3.84;100.00;99512.34;108828;1273;22097;-82
2024/01/01 00:25:35;;;;;;;133.30;97.90;;;;;;;3.81;100.00;99513.44;108806;1282;23492;-83
2024/01/01 00:28:10;;;;;;;134.50;104.20;;;;;;;3.82;100.00;99507.91;109366;1263;22610;-82
2024/01/01 00:30:40;;;;;;;130.10;103.20;;;;;;;3.84;100.00;99504.23;110627;1263;22062;-83
2024/01/01 00:33:18;;;;;;;124.40;99.50;;;;;;;3.85;100.00;99502.83;110949;1258;21998;-82
2024/01/01 00:35:56;;;;;;;118.70;93.20;;;;;;;3.85;100.00;99510.58;111098;1257;23065;-84
2024/01/01 00:38:52;;;;;;;121.60;97.40;;;;;;;3.86;100.00;99514.02;111088;1258;21987;-83
2024/01/01 00:41:40;;;;;;;120.40;96.70;;;;;;;3.87;100.00;99520.88;110932;1258;23409;-83
2024/01/01 00:44:41;;;;;;;123.90;99.00;;;;;;;3.89;100.00;99526.85;110594;1264;21975;-81
2024/01/01 00:47:39;;;;;;;126.40;101.90;;;;;;;3.89;100.00;99526.69;110581;1264;21981;-82
2024/01/01 00:50:17;;;;;;;126.50;102.00;;;;;;;3.88;100.00;99530.13;110216;1267;22225;-82
2024/01/01 00:53:06;;;;;;;131.70;108.40;;;;;;;3.89;100.00;99531.66;110210;1267;23030;-82
2024/01/01 00:55:49;;;;;;;129.80;105.90;;;;;;;3.89;100.00;99537.52;110211;1267;24817;-82
2024/01/01 00:58:31;;;;;;;139.80;111.70;;;;;;;3.90;100.00;99542.32;109661;1270;22003;-81
2024/01/01 01:01:29;;;;;;;164.70;123.70;;;;;;;3.92;100.00;99536.60;109921;1270;22809;-84
2024/01/01 01:04:05;;;;;;;149.50;107.90;;;;;;;3.92;100.00;99527.98;110133;1268;23695;-83
2024/01/01 01:06:45;;;;;;;136.60;104.60;;;;;;;3.95;100.00;99521.22;109466;1273;22005;-86
2024/01/01 01:09:30;;;;;;;129.80;101.20;;;;;;;3.98;100.00;99519.07;109990;1270;23646;-83
2024/01/01 01:12:18;;;;;;;150.30;102.20;;;;;;;3.99;100.00;99523.70;109985;1270;21986;-83
2024/01/01 01:15:13;;;;;;;147.60;99.90;;;;;;;3.98;100.00;99530.77;109777;1270;23708;-82
2024/01/01 01:17:50;;;;;;;135.40;98.30;;;;;;;3.95;100.00;99534.97;109830;1270;21990;-82
2024/01/01 01:20:40;;;;;;;134.50;96.20;;;;;;;3.90;100.00;99535.27;109347;1274;22456;-83
2024/01/01 01:23:28;;;;;;;135.10;95.80;;;;;;;3.86;100.00;99540.36;109205;1274;21992;-84
2024/01/01 01:26:09;;;;;;;131.80;93.20;;;;;;;3.86;100.00;99546.38;109822;1269;22662;-83
2024/01/01 01:28:47;;;;;;;132.00;95.60;;;;;;;3.89;100.00;99542.85;109891;1269;24312;-83
2024/01/01 01:31:24;;;;;;;127.60;90.00;;;;;;;3.92;100.00;99542.45;109934;1269;21989;-82
2024/01/01 01:34:14;;;;;;;;;;;;;;;;;;;;;
2024/01/01 01:36:51;;;;;;;116.70;85.20;;;;;;;3.95;100.00;99549.79;109558;1274;21992;-83
2024/01/01 01:39:52;;;;;;;104.80;78.30;;;;;;;3.97;100.00;99548.02;109439;1267;21986;-83
2024/01/01 01:42:30;;;;;;;115.80;80.00;;;;;;;3.98;100.00;99540.77;109350;1273;22005;-81
2024/01/01 01:45:13;;;;;;;103.40;77.20;;;;;;;3.98;100.00;99540.05;109685;1268;21975;-83
2024/01/01 01:47:56;;;;;;;102.50;76.50;;;;;;;4.01;100.00;99536.74;109727;1272;21987;-83
2024/01/01 01:50:47;;;;;;;99.90;80.50;;;;;;;4.03;100.00;99541.48;109187;1277;24315;-83
2024/01/01 01:53:30;;;;;;;97.70;76.90;;;;;;;4.00;100.00;99548.11;108914;1281;21987;-81
2024/01/01 01:56:19;;;;;;;102.30;82.50;;;;;;;3.98;100.00;99545.58;109159;1276;22028;-83
2024/01/01 01:59:03;;;;;;;112.70;85.20;;;;;;;4.02;100.00;99548.75;109284;1276;25096;-82
2024/01/01 02:01:39;;;;;;;100.00;76.20;;;;;;;4.06;100.00;99549.35;109078;1277;21967;-84
2024/01/01 02:04:21;;;;;;;95.90;74.80;;;;;;;4.11;100.00;99547.85;109184;1277;23732;-83
2024/01/01 02:07:45;;;;;;;153.00;95.00;;;;;;;4.16;100.00;99549.27;109043;1274;21983;-81
2024/01/01 02:10:30;;;;;;;105.80;78.10;;;;;;;4.22;100.00;99552.75;109341;1273;23675;-82
2024/01/01 02:13:22;;;;;;;111.50;81.20;;;;;;;4.26;100.00;99555.58;109899;1268;22003;-82
2024/01/01 02:16:07;;;;;;;102.20;75.00;;;;;;;4.30;100.00;99551.88;110025;1269;22992;-82
2024/01/01 02:19:29;;;;;;;92.20;74.30;;;;;;;4.31;100.00;99550.64;110187;1264;22024;-82
2024/01/01 02:22:13;;;;;;;88.60;74.30;;;;;;;4.34;100.00;99547.81;109996;1268;23014;-82
2024/01/01 02:25:00;;;;;;;88.20;67.90;;;;;;;4.39;100.00;99550.27;110299;1268;21979;-82
2024/01/01 02:27:37;;;;;;;81.30;68.10;;;;;;;4.44;100.00;99548.76;110013;1262;23047;-81
2024/01/01 02:30:29;;;;;;;78.10;65.20;;;;;;;4.48;100.00;99551.57;110585;1262;21946;-80
2024/01/01 02:33:21;;;;;;;78.90;65.00;;;;;;;4.53;100.00;99551.79;110917;1262;23809;-80
2024/01/01 02:35:57;;;;;;;70.30;57.00;;;;;;;4.58;100.00;99547.18;109775;1268;21995;-83
2024/01/01 02:38:44;;;;;;;67.60;55.00;;;;;;;4.64;100.00;99546.70;109920;1268;21974;-81
2024/01/01 02:41:18;;;;;;;63.90;52.50;;;;;;;4.71;100.00;99549.95;110423;1265;21971;-83
2024/01/01 02:43:57;;;;;;;58.90;50.70;;;;;;;4.79;100.00;99558.02;109634;1270;22432;-84
2024/01/01 02:46:43;;;;;;;62.70;51.40;;;;;;;4.86;100.00;99549.71;109678;1270;21965;-83
2024/01/01 02:49:43;;;;;;;;;;;;;;;;;;;;;
2024/01/01 02:52:29;;;;;;;62.90;49.20;;;;;;;4.97;100.00;99544.09;109881;1270;24401;-83
2024/01/01 02:55:18;;;;;;;57.10;48.40;;;;;;;4.99;100.00;99541.62;109967;1269;22445;-82
2024/01/01 02:57:49;;;;;;;63.10;52.60;;;;;;;5.03;100.00;99544.09;109697;1269;21977;-81
2024/01/01 03:00:23;;;;;;;68.80;55.10;;;;;;;5.08;100.00;99543.94;109702;1269;22005;-82
2024/01/01 03:03:03;;;;;;;62.40;52.00;;;;;;;5.13;100.00;99547.78;109488;1274;23041;-82
2024/01/01 03:05:38;;;;;;;60.50;50.70;;;;;;;5.16;100.00;99545.11;109624;1274;21995;-81
2024/01/01 03:08:10;;;;;;;59.60;48.90;;;;;;;5.19;100.00;99538.65;109441;1268;21973;-81
2024/01/01 03:10:44;;;;;;;59.90;49.50;;;;;;;5.20;100.00;99532.23;109691;1268;21976;-80
2024/01/01 03:13:22;;;;;;;65.50;51.80;;;;;;;5.20;100.00;99531.02;110221;1263;21989;-82
2024/01/01 03:16:02;;;;;;;60.70;50.00;;;;;;;5.20;100.00;99532.93;110666;1263;21973;-83
2024/01/01 03:18:38;;;;;;;61.10;51.80;;;;;;;5.20;100.00;99534.46;110889;1263;21974;-85
2024/01/01 03:21:16;;;;;;;67.20;52.30;;;;;;;5.21;100.00;99536.16;110999;1257;23606;-83
2024/01/01 03:23:50;;;;;;;65.30;51.50;;;;;;;5.23;100.00;99534.90;111240;1257;22030;-83
2024/01/01 03:26:29;;;;;;;60.60;51.30;;;;;;;5.25;100.00;99532.08;111115;1257;22030;-83
2024/01/01 03:29:21;;;;;;;59.70;47.60;;;;;;;5.26;100.00;99536.54;110598;1264;21995;-83
2024/01/01 03:32:00;;;;;;;53.10;45.60;;;;;;;5.25;100.00;99536.90;110584;1264;21988;-84
2024/01/01 03:34:35;;;;;;;53.10;46.00;;;;;;;5.29;100.00;99533.36;110728;1263;21971;-83
2024/01/01 03:37:16;;;;;;;56.60;45.80;;;;;;;5.25;100.00;99519.31;110235;1268;21957;-83
2024/01/01 03:39:57;;;;;;;58.30;48.00;;;;;;;5.33;100.00;99524.61;110312;1268;23656;-85
2024/01/01 03:42:34;;;;;;;54.90;44.30;;;;;;;5.34;100.00;99520.61;109730;1271;21987;-82
2024/01/01 03:45:15;;;;;;;57.50;47.60;;;;;;;5.36;100.00;99520.73;109703;1271;22004;-81
2024/01/01 03:47:59;;;;;;;56.40;48.00;;;;;;;5.35;100.00;99524.20;110297;1265;23686;-81
2024/01/01 03:50:36;;;;;;;57.60;46.80;;;;;;;5.36;100.00;99526.23;109960;1270;21981;-83
2024/01/01 03:53:14;;;;;;;52.80;44.80;;;;;;;5.37;100.00;99519.81;109736;1270;21980;-86
2024/01/01 03:55:59;;;;;;;50.10;44.10;;;;;;;5.39;100.00;99520.28;109942;1267;22153;-83
2024/01/01 03:58:32;;;;;;;54.50;44.60;;;;;;;5.41;100.00;99518.16;110290;1267;21972;-83
2024/01/01 04:01:14;;;;;;;54.60;42.50;;;;;;;5.38;100.00;99512.05;110584;1263;23591;-82
2024/01/01 04:04:04;;;;;;;51.20;42.90;;;;;;;5.37;100.00;99512.06;110839;1263;23529;-86
2024/01/01 04:06:44;;;;;;;53.90;42.70;;;;;;;5.38;100.00;99508.41;110543;1263;23695;-85
2024/01/01 04:09:43;;;;;;;52.20;43.80;;;;;;;5.34;100.00;99497.99;110397;1264;22912;-83
2024/01/01 04:12:17;;;;;;;62.50;48.70;;;;;;;5.34;100.00;99492.64;110180;1264;21914;-83
2024/01/01 04:14:56;;;;;;;66.70;50.00;;;;;;;5.37;100.00;99492.40;110597;1264;21993;-82
2024/01/01 04:17:44;;;;;;;64.00;51.40;;;;;;;5.38;100.00;99488.23;110542;1264;21980;-83
2024/01/01 04:20:26;;;;;;;51.40;44.70;;;;;;;5.37;100.00;99490.13;110459;1264;24312;-82
2024/01/01 04:23:13;;;;;;;86.00;65.20;;;;;;;5.34;100.00;99475.07;110260;1268;22076;-83
2024/01/01 04:25:51;;;;;;;61.10;49.60;;;;;;;5.30;100.00;99461.70;110379;1262;21987;-86
2024/01/01 04:28:49;;;;;;;61.10;52.20;;;;;;;5.28;100.00;99460.05;110928;1261;22018;-87
2024/01/01 04:31:29;;;;;;;75.30;67.10;;;;;;;5.29;100.00;99458.64;110632;1261;22041;-85
2024/01/01 04:34:17;;;;;;;68.90;61.40;;;;;;;5.29;100.00;99472.09;110958;1261;21981;-86
2024/01/01 04:37:13;;;;;;;66.30;57.60;;;;;;;5.27;100.00;99475.60;110803;1261;23637;-85
2024/01/01 04:40:09;;;;;;;65.80;56.00;;;;;;;5.24;100.00;99478.27;110921;1261;21983;-85
2024/01/01 04:42:49;;;;;;;71.90;58.50;;;;;;;5.20;100.00;99478.21;111336;1257;22073;-83
2024/01/01 04:45:24;;;;;;;69.30;58.60;;;;;;;5.20;100.00;99475.11;111177;1257;21976;-84
2024/01/01 04:48:17;;;;;;;79.50;60.80;;;;;;;5.23;100.00;99472.61;111199;1257;22496;-86
2024/01/01 04:51:00;;;;;;;;;;;;;;;;;;;;;
2024/01/01 04:54:19;;;;;;;65.20;53.40;;;;;;;5.24;100.00;99475.70;110891;1262;22023;-87
2024/01/01 04:57:04;;;;;;;81.90;62.80;;;;;;;5.25;100.00;99477.39;110327;1262;22064;-86
2024/01/01 04:59:42;;;;;;;83.00;62.90;;;;;;;5.25;100.00;99478.92;110806;1262;21972;-85
2024/01/01 05:02:32;;;;;;;77.60;60.30;;;;;;;5.26;100.00;99480.99;110715;1262;23088;-84
2024/01/01 05:05:24;;;;;;;113.80;73.00;;;;;;;5.23;100.00;99476.75;110770;1262;21967;-85
2024/01/01 05:08:23;;;;;;;96.70;65.40;;;;;;;5.23;100.00;99475.73;110225;1265;22352;-85
2024/01/01 05:11:29;;;;;;;75.60;59.00;;;;;;;5.23;100.00;99474.70;109615;1272;22021;-85
2024/01/01 05:14:06;;;;;;;72.20;57.50;;;;;;;5.24;100.00;99473.28;109565;1272;22132;-84
2024/01/01 05:16:50;;;;;;;70.00;58.00;;;;;;;5.26;100.00;99471.98;109612;1272;22016;-82
2024/01/01 05:19:25;;;;;;;66.80;57.10;;;;;;;5.28;100.00;99474.20;109572;1271;21983;-82
2024/01/01 05:22:04;;;;;;;70.00;56.80;;;;;;;5.29;100.00;99466.76;109532;1272;23628;-85
2024/01/01 05:24:47;;;;;;;68.50;57.00;;;;;;;5.29;100.00;99464.52;109239;1272;21982;-84
2024/01/01 05:27:33;;;;;;;60.90;54.20;;;;;;;5.27;100.00;99457.83;109551;1269;21979;-82
2024/01/01 05:30:09;;;;;;;62.50;54.00;;;;;;;5.26;100.00;99455.98;110031;1270;22783;-85
2024/01/01 05:32:47;;;;;;;65.60;54.90;;;;;;;5.25;100.00;99457.03;109917;1265;22081;-83
2024/01/01 05:35:31;;;;;;;75.10;59.30;;;;;;;5.24;100.00;99459.48;109972;1269;21999;-85
2024/01/01 05:38:22;;;;;;;73.80;61.80;;;;;;;5.23;100.00;99455.20;109719;1269;23132;-84
2024/01/01 05:41:02;;;;;;;;;;;;;;;5.19;100.00;99460.16;109757;1269;21966;-84
2024/01/01 05:43:35;;;;;;;70.60;60.20;;;;;;;5.06;100.00;99464.16;111170;1257;21987;-83
2024/01/01 05:46:17;;;;;;;68.10;59.30;;;;;;;5.00;100.00;99464.15;111116;1257;21985;-84
2024/01/01 05:48:49;;;;;;;72.40;61.60;;;;;;;4.95;100.00;99467.94;111129;1257;21986;-84
2024/01/01 05:51:29;;;;;;;73.20;63.30;;;;;;;4.92;100.00;99469.73;111011;1257;23635;-84
2024/01/01 05:54:16;;;;;;;101.30;88.70;;;;;;;4.87;100.00;99468.66;111048;1257;21964;-83
2024/01/01 05:56:52;;;;;;;100.80;83.30;;;;;;;4.86;100.00;99477.33;111005;1257;22439;-84
2024/01/01 05:59:26;;;;;;;90.20;79.70;;;;;;;4.88;100.00;99475.02;110979;1257;21967;-83
2024/01/01 06:02:08;;;;;;;86.60;73.80;;;;;;;4.88;100.00;99472.77;111372;1257;21961;-84
2024/01/01 06:04:42;;;;;;;77.90;69.50;;;;;;;4.88;100.00;99474.15;111177;1257;23615;-84
2024/01/01 06:07:28;;;;;;;74.50;64.00;;;;;;;4.86;100.00;99468.70;111225;1247;23037;-87
2024/01/01 06:10:32;;;;;;;76.20;62.10;;;;;;;4.86;100.00;99468.86;111074;1257;22960;-84
2024/01/01 06:13:04;;;;;;;88.90;69.80;;;;;;;4.87;100.00;99467.29;111515;1251;22972;-83
2024/01/01 06:15:48;;;;;;;98.70;76.00;;;;;;;4.86;100.00;99471.80;111236;1257;22028;-82
2024/01/01 06:18:27;;;;;;;149.10;93.20;;;;;;;4.85;100.00;99472.54;111117;1252;21961;-82
2024/01/01 06:21:12;;;;;;;178.80;104.10;;;;;;;4.85;100.00;99472.02;111091;1257;23058;-82
2024/01/01 06:23:50;;;;;;;155.80;100.20;;;;;;;4.82;100.00;99471.41;110787;1262;23621;-83
2024/01/01 06:26:44;;;;;;;102.60;78.20;;;;;;;4.79;100.00;99474.74;111014;1262;21973;-83
2024/01/01 06:29:15;;;;;;;98.50;71.10;;;;;;;4.76;100.00;99473.28;110828;1264;21953;-84
2024/01/01 06:31:56;;;;;;;82.50;65.30;;;;;;;4.74;100.00;99470.75;110410;1266;21988;-84
2024/01/01 06:34:30;;;;;;;89.10;75.60;;;;;;;4.75;100.00;99468.31;110644;1265;23077;-83
2024/01/01 06:37:12;;;;;;;86.90;74.20;;;;;;;4.76;100.00;99467.80;110677;1266;21975;-84
2024/01/01 06:40:04;;;;;;;88.00;74.70;;;;;;;4.75;100.00;99465.21;109833;1270;23035;-82
2024/01/01 06:43:05;;;;;;;97.60;82.30;;;;;;;4.73;100.00;99458.03;110473;1264;21947;-83
2024/01/01 06:45:40;;;;;;;90.60;80.70;;;;;;;4.74;100.00;99459.55;110521;1265;21978;-82
2024/01/01 06:48:15;;;;;;;81.70;69.30;;;;;;;4.76;100.00;99465.88;110760;1262;21933;-83
2024/01/01 06:50:57;;;;;;;75.10;64.30;;;;;;;4.76;100.00;99474.84;110950;1262;22038;-83
2024/01/01 06:53:42;;;;;;;73.00;64.10;;;;;;;4.74;100.00;99476.10;110876;1262;21968;-83
2024/01/01 06:56:21;;;;;;;;;;;;;;;4.76;100.00;99473.98;110646;1262;23641;-82
2024/01/01 06:58:56;;;;;;;76.50;61.20;;;;;;;4.68;100.00;99473.52;110946;1260;21961;-82
2024/01/01 07:01:31;;;;;;;82.10;71.40;;;;;;;4.70;100.00;99475.17;110812;1260;21987;-82
2024/01/01 07:04:11;;;;;;;79.30;70.30;;;;;;;4.72;100.00;99482.86;111006;1260;22022;-80
2024/01/01 07:07:00;;;;;;;79.90;71.20;;;;;;;4.74;100.00;99481.96;110786;1260;21962;-81
2024/01/01 07:09:33;;;;;;;82.20;73.30;;;;;;;4.77;100.00;99481.89;110948;1260;21990;-81
2024/01/01 07:12:23;;;;;;;77.00;68.10;;;;;;;4.81;100.00;99482.83;110448;1265;24306;-82
2024/01/01 07:15:01;;;;;;;71.90;64.20;;;;;;;4.81;100.00;99481.94;110429;1265;23168;-81
2024/01/01 07:17:34;;;;;;;69.90;60.40;;;;;;;4.83;100.00;99482.92;110649;1262;22135;-82
2024/01/01 07:20:10;;;;;;;70.10;62.00;;;;;;;4.83;100.00;99487.39;110244;1262;23663;-81
2024/01/01 07:22:40;;;;;;;74.20;66.40;;;;;;;4.82;100.00;99490.17;110427;1266;22729;-82
2024/01/01 07:25:14;;;;;;;70.50;62.70;;;;;;;4.83;100.00;99489.62;110371;1267;22124;-83
2024/01/01 07:27:49;;;;;;;71.00;62.90;;;;;;;4.85;100.00;99489.41;109647;1273;22028;-81
2024/01/01 07:30:30;;;;;;;63.40;55.90;;;;;;;4.87;100.00;99486.59;109467;1273;21981;-80
2024/01/01 07:33:07;;;;;;;65.70;58.80;;;;;;;4.88;100.00;99484.15;109398;1273;21992;-83
2024/01/01 07:35:49;;;;;;;64.90;55.50;;;;;;;4.91;100.00;99481.48;109472;1273;22366;-83
2024/01/01 07:38:22;;;;;;;60.40;53.00;;;;;;;4.96;100.00;99481.18;109947;1268;23746;-83
2024/01/01 07:41:05;;;;;;;77.00;61.20;;;;;;;4.99;100.00;99482.47;109625;1270;23742;-83
2024/01/01 07:43:43;;;;;;;69.80;55.10;;;;;;;5.01;100.00;99489.30;109687;1270;22086;-82
2024/01/01 07:46:19;;;;;;;59.20;47.80;;;;;;;5.04;100.00;99497.31;110337;1264;21992;-83
2024/01/01 07:49:14;;;;;;;56.80;48.40;;;;;;;5.07;100.00;99498.26;110475;1264;22751;-83
2024/01/01 07:51:44;;;;;;;54.60;46.50;;;;;;;5.12;100.00;99492.80;110524;1264;22989;-82
2024/01/01 07:54:21;;;;;;;50.90;44.10;;;;;;;5.17;100.00;99490.38;110428;1264;22090;-82
2024/01/01 07:56:55;;;;;;;55.00;45.40;;;;;;;5.22;100.00;99485.41;110097;1268;22057;-81
2024/01/01 07:59:28;;;;;;;56.20;43.90;;;;;;;5.25;100.00;99488.60;109790;1267;22902;-82
2024/01/01 08:02:06;;;;;;;45.40;40.40;;;;;;;5.28;100.00;99491.80;110220;1267;21972;-82
2024/01/01 08:04:44;;;;;;;50.50;42.10;;;;;;;5.29;100.00;99491.41;110244;1267;21990;-82
2024/01/01 08:07:24;;;;;;;58.30;45.70;;;;;;;5.28;100.00;99491.78;110348;1267;21995;-80
2024/01/01 08:10:05;;;;;;;54.90;43.60;;;;;;;5.26;100.00;99489.79;110330;1267;24064;-85
2024/01/01 08:13:16;;;;;;;44.00;38.80;;;;;;;5.24;100.00;99483.44;110441;1267;22065;-85
2024/01/01 08:16:03;;;;;;;47.00;39.30;;;;;;;5.28;100.00;99482.98;110601;1263;23047;-86
2024/01/01 08:19:13;;;;;;;;;;;;;;;;;;;;;
2024/01/01 08:22:28;;;;;;;55.90;47.30;;;;;;;5.27;100.00;99488.38;111264;1257;21974;-82
2024/01/01 08:25:13;;;;;;;46.70;41.40;;;;;;;5.36;100.00;99496.40;111248;1257;22436;-84
2024/01/01 08:28:07;;;;;;;45.30;38.60;;;;;;;5.36;100.00;99496.41;111133;1257;21984;-86
2024/01/01 08:30:49;;;;;;;55.20;42.50;;;;;;;5.34;100.00;99500.60;111373;1257;22960;-84
2024/01/01 08:33:44;;;;;;;51.10;44.50;;;;;;;5.33;100.00;99502.85;111194;1257;22406;-80
2024/01/01 08:36:48;;;;;;;61.40;53.40;;;;;;;5.32;100.00;99504.63;110958;1263;21990;-84
2024/01/01 08:39:24;;;;;;;;;;;;;;;5.36;100.00;99506.06;110683;1263;21973;-84
2024/01/01 08:41:57;;;;;;;59.20;50.60;;;;;;;5.29;100.00;99507.80;110888;1263;23595;-84
2024/01/01 08:44:52;;;;;;;62.80;55.00;;;;;;;5.28;100.00;99505.59;110112;1269;23757;-83
2024/01/01 08:47:37;;;;;;;89.00;75.20;;;;;;;5.33;100.00;99508.21;109302;1276;22485;-84
2024/01/01 08:51:04;;;;;;;167.80;111.60;;;;;;;5.37;100.00;99505.15;109031;1276;21993;-83
2024/01/01 08:54:29;;;;;;;;;;;;;;;;;;;;;
2024/01/01 08:57:39;;;;;;;113.30;69.40;;;;;;;5.39;100.00;99510.79;108670;1287;21998;-83
2024/01/01 09:01:24;;;;;;;;;;;;;;;;;;;;;
2024/01/01 09:04:49;;;;;;;72.00;50.90;;;;;;;5.35;100.00;99515.58;102399;1290;23936;-82
2024/01/01 09:08:46;;;;;;;64.40;45.50;;;;;;;5.32;100.00;99518.42;108486;1280;21961;-83
2024/01/01 09:15:07;;;;;;;;;;;;;;;;;;;;;
2024/01/01 09:18:29;;;;;;;67.30;54.70;;;;;;;5.34;100.00;99519.05;108446;1288;23043;-81
2024/01/01 09:21:15;;;;;;;58.90;52.10;;;;;;;5.42;100.00;99513.96;108521;1287;23094;-82
2024/01/01 09:23:48;;;;;;;63.70;53.40;;;;;;;5.49;100.00;99509.30;108600;1284;21971;-83
2024/01/01 09:26:27;;;;;;;60.00;51.80;;;;;;;5.55;100.00;99514.28;108300;1288;22725;-83
2024/01/01 09:29:02;;;;;;;66.10;58.70;;;;;;;5.58;100.00;99509.34;108279;1289;23749;-82
2024/01/01 09:31:47;;;;;;;68.50;56.20;;;;;;;5.57;100.00;99507.30;108894;1276;22040;-82
2024/01/01 09:34:32;;;;;;;60.00;50.60;;;;;;;5.59;100.00;99507.62;109421;1263;21978;-82
2024/01/01 09:37:03;;;;;;;77.10;65.00;;;;;;;5.61;100.00;99508.39;110772;1263;21935;-81
2024/01/01 09:39:38;;;;;;;63.40;51.90;;;;;;;5.63;100.00;99506.63;110926;1263;22003;-82
2024/01/01 09:42:15;;;;;;;54.40;44.10;;;;;;;5.64;100.00;99503.80;110667;1263;23276;-82
2024/01/01 09:44:50;;;;;;;53.10;41.20;;;;;;;5.67;100.00;99500.78;110682;1262;21946;-81
2024/01/01 09:47:36;;;;;;;;;;;;;;;;;;;;;
2024/01/01 09:50:29;;;;;;;49.40;44.30;;;;;;;5.76;100.00;99496.36;110667;1262;22583;-81
2024/01/01 09:53:06;;;;;;;53.50;43.90;;;;;;;5.81;100.00;99490.86;109751;1268;21976;-83
2024/01/01 09:55:56;;;;;;;58.00;51.30;;;;;;;5.85;100.00;99486.22;109920;1267;22699;-83
2024/01/01 09:58:38;;;;;;;104.30;67.30;;;;;;;5.90;100.00;99485.73;109657;1271;21944;-81
2024/01/01 10:01:15;;;;;;;59.80;51.40;;;;;;;5.93;100.00;99486.34;109638;1271;22743;-82
2024/01/01 10:04:07;;;;;;;46.00;41.10;;;;;;;5.96;100.00;99485.91;109625;1271;21989;-81
2024/01/01 10:06:43;;;;;;;43.80;37.60;;;;;;;6.00;100.00;99482.67;109206;1276;21987;-79
2024/01/01 10:09:34;;;;;;;41.90;36.30;;;;;;;6.02;100.00;99478.80;109371;1271;22069;-82
2024/01/01 10:12:22;;;;;;;39.50;31.90;;;;;;;6.05;100.00;99478.52;109974;1267;21983;-81
2024/01/01 10:14:59;;;;;;;42.10;36.10;;;;;;;6.09;100.00;99477.05;109467;1273;21971;-81
2024/01/01 10:17:53;;;;;;;60.20;53.00;;;;;;;6.13;100.00;99480.19;109619;1272;22008;-81
2024/01/01 10:20:26;;;;;;;57.00;50.80;;;;;;;6.18;100.00;99482.42;109191;1276;22785;-81
2024/01/01 10:22:57;;;;;;;53.30;44.40;;;;;;;6.24;100.00;99485.67;108875;1279;22009;-83
2024/01/01 10:25:41;;;;;;;45.30;40.40;;;;;;;6.29;100.00;99483.10;108833;1282;22032;-81
2024/01/01 10:28:51;;;;;;;48.00;38.60;;;;;;;6.30;100.00;99488.24;108955;1282;22075;-83
2024/01/01 10:32:01;;;;;;;51.70;44.80;;;;;;;6.32;100.00;99487.84;108923;1282;21618;-82
2024/01/01 10:35:00;;;;;;;47.50;40.00;;;;;;;6.34;100.00;99486.21;109350;1277;23766;-83
2024/01/01 10:37:54;;;;;;;43.30;34.20;;;;;;;6.35;100.00;99478.90;109334;1270;23647;-83
2024/01/01 10:40:36;;;;;;;46.00;39.10;;;;;;;6.39;100.00;99478.42;109789;1267;21988;-83
2024/01/01 10:43:25;;;;;;;43.60;36.50;;;;;;;6.44;100.00;99476.72;110155;1267;23798;-86
2024/01/01 10:46:15;;;;;;;48.90;40.10;;;;;;;6.49;100.00;99470.14;109965;1267;22020;-83
2024/01/01 10:49:15;;;;;;;40.10;35.90;;;;;;;6.53;100.00;99466.00;109960;1264;22056;-82
2024/01/01 10:52:35;;;;;;;48.40;40.40;;;;;;;6.56;100.00;99471.98;110107;1268;22748;-84
2024/01/01 10:56:27;;;;;;;49.90;42.80;;;;;;;6.54;100.00;99472.20;108997;1280;22752;-83
2024/01/01 10:59:31;;;;;;;65.00;49.20;;;;;;;6.53;100.00;99476.21;108550;1287;22762;-83
2024/01/01 11:02:25;;;;;;;50.20;44.70;;;;;;;6.56;100.00;99470.27;108160;1293;24357;-82
2024/01/01 11:05:38;;;;;;;58.50;48.30;;;;;;;6.61;100.00;99469.52;108323;1293;23759;-81
2024/01/01 11:08:11;;;;;;;60.80;50.00;;;;;;;6.66;100.00;99464.19;108000;1293;22014;-84
2024/01/01 11:11:18;;;;;;;63.00;52.00;;;;;;;6.71;100.00;99461.59;108423;1289;22029;-85
2024/01/01 11:14:07;;;;;;;57.00;50.60;;;;;;;6.71;100.00;99457.44;109028;1278;23054;-82
2024/01/01 11:16:57;;;;;;;55.40;47.20;;;;;;;6.74;100.00;99456.48;109145;1278;22713;-84
2024/01/01 11:19:43;;;;;;;53.50;45.10;;;;;;;6.78;100.00;99455.77;109030;1276;21996;-83
2024/01/01 11:22:30;;;;;;;43.60;39.00;;;;;;;6.82;100.00;99456.17;109243;1276;22221;-82
2024/01/01 11:25:36;;;;;;;42.90;35.80;;;;;;;6.82;100.00;99452.52;109397;1276;23075;-83
2024/01/01 11:28:40;;;;;;;42.10;31.70;;;;;;;6.83;100.00;99451.98;109147;1276;21999;-85
2024/01/01 11:31:16;;;;;;;44.70;36.50;;;;;;;6.85;100.00;99453.13;108923;1276;22157;-82
2024/01/01 11:34:02;;;;;;;46.20;39.70;;;;;;;6.88;100.00;99448.15;108665;1283;22005;-84
2024/01/01 11:36:52;;;;;;;48.90;38.50;;;;;;;6.91;100.00;99446.50;109240;1275;22001;-83
2024/01/01 11:40:06;;;;;;;44.20;37.20;;;;;;;6.94;100.00;99443.60;109321;1276;23734;-84
2024/01/01 11:43:07;;;;;;;89.40;67.40;;;;;;;6.96;100.00;99440.27;109296;1276;21988;-84
2024/01/01 11:45:40;;;;;;;148.80;102.60;;;;;;;6.95;100.00;99432.14;109737;1270;21983;-83
2024/01/01 11:48:36;;;;;;;115.50;87.20;;;;;;;6.98;100.00;99431.86;109767;1263;21975;-83
2024/01/01 11:51:34;;;;;;;82.50;59.00;;;;;;;7.02;100.00;99431.89;110592;1257;22017;-84
2024/01/01 11:58:17;;;;;;;50.50;37.50;;;;;;;6.99;100.00;99426.11;110862;1262;22075;-83
2024/01/01 12:01:16;;;;;;;;;;;;;;;;;;;;;
2024/01/01 12:04:44;;;;;;;;;;;;;;;;;;;;;
2024/01/01 12:08:43;;;;;;;45.10;37.40;;;;;;;7.05;100.00;99429.00;109367;1276;24457;-84
2024/01/01 12:12:16;;;;;;;48.80;39.80;;;;;;;7.06;100.00;99427.60;109060;1279;22141;-83
2024/01/01 12:15:53;;;;;;;68.90;55.00;;;;;;;7.07;100.00;99425.13;108822;1285;23621;-82
2024/01/01 12:19:23;;;;;;;50.00;43.30;;;;;;;7.10;100.00;99427.80;108651;1286;22002;-83
2024/01/01 12:25:35;;;;;;;53.10;47.30;;;;;;;7.14;100.00;99429.55;108919;1280;22798;-84
2024/01/01 12:28:45;;;;;;;;;;;;;;;;;;;;;
2024/01/01 12:32:26;;;;;;;55.50;44.50;;;;;;;7.11;100.00;99423.60;109268;1273;23714;-85
2024/01/01 12:35:12;;;;;;;54.00;42.90;;;;;;;7.17;100.00;99429.25;110001;1267;21975;-80
2024/01/01 12:38:05;;;;;;;55.30;44.10;;;;;;;7.17;100.00;99421.80;110304;1267;23736;-84
2024/01/01 12:41:23;;;;;;;59.10;46.80;;;;;;;7.22;100.00;99431.48;110280;1261;22656;-86
2024/01/01 12:44:28;;;;;;;80.90;65.90;;;;;;;7.22;100.00;99431.99;110786;1248;23113;-87
2024/01/01 12:47:22;;;;;;;65.60;53.40;;;;;;;7.24;100.00;99431.42;110450;1267;22078;-85
2024/01/01 12:50:24;;;;;;;89.20;75.40;;;;;;;7.22;100.00;99423.85;109938;1256;22002;-88
2024/01/01 12:53:05;;;;;;;64.80;50.30;;;;;;;7.23;100.00;99432.29;109672;1273;22025;-87
2024/01/01 12:56:04;;;;;;;58.10;47.60;;;;;;;7.23;100.00;99430.25;109494;1270;21992;-86
2024/01/01 12:58:40;;;;;;;54.50;44.10;;;;;;;7.22;100.00;99428.36;109599;1270;23689;-86
2024/01/01 13:01:27;;;;;;;58.50;45.00;;;;;;;7.22;100.00;99425.59;109635;1270;21993;-85
2024/01/01 13:04:26;;;;;;;;;;;;;;;;;;;;;
2024/01/01 13:07:28;;;;;;;65.50;47.90;;;;;;;7.22;100.00;99419.73;110528;1267;23763;-86
2024/01/01 13:10:28;;;;;;;;;;;;;;;;;;;;;